Time;durP1;ratioP1;P1;durP2;ratioP2;P2;SDS_P1;SDS_P2;PMS_P1;PMS_P2;Temp;Humidity;BMP_temperature;BMP_pressure;BME280_temperature;BME280_humidity;BME280_pressure;Samples;Min_cycle;Max_cycle;Signal;HPM_P1;HPM_P2
2021/10/25 00:01:00;;;;;;;17.20;6.30;;;;;;;-0.80;78.50;100981.83;1708575;84;21072;-63
2021/10/25 00:03:27;;;;;;;17.73;6.58;;;;;;;-0.85;78.38;100981.63;1708170;84;20901;-62
2021/10/25 00:05:56;;;;;;;16.60;5.75;;;;;;;-0.90;78.46;100981.41;1708444;84;21456;-62
2021/10/25 00:08:22;;;;;;;11.73;5.20;;;;;;;-0.95;78.44;100978.50;1708503;84;21464;-62
2021/10/25 00:10:51;;;;;;;17.87;5.62;;;;;;;-1.03;78.40;100978.17;1708257;84;21487;-62
2021/10/25 00:13:21;;;;;;;11.80;5.50;;;;;;;-1.10;78.29;100975.16;1708180;83;20989;-62
2021/10/25 00:15:49;;;;;;;15.93;5.72;;;;;;;-1.18;78.40;100976.20;1708224;82;20962;-62
2021/10/25 00:18:15;;;;;;;14.28;5.50;;;;;;;-1.24;78.46;100976.19;1708405;82;20905;-62
2021/10/25 00:20:42;;;;;;;13.50;5.20;;;;;;;-1.31;78.57;100980.73;1708535;84;20949;-62
2021/10/25 00:23:09;;;;;;;17.42;6.30;;;;;;;-1.36;78.75;100979.98;1708599;84;21465;-62
2021/10/25 00:25:35;;;;;;;14.63;6.53;;;;;;;-1.42;78.81;100980.80;1708191;84;21195;-63
2021/10/25 00:28:01;;;;;;;15.15;6.62;;;;;;;-1.50;78.89;100979.11;1708091;83;21010;-63
2021/10/25 00:30:28;;;;;;;19.50;8.25;;;;;;;-1.55;79.10;100980.75;1708225;84;20933;-63
2021/10/25 00:32:56;;;;;;;21.07;8.40;;;;;;;-1.59;79.32;100978.14;1708522;82;20941;-63
2021/10/25 00:35:23;;;;;;;18.75;8.53;;;;;;;-1.62;79.39;100977.20;1706598;82;21465;-63
2021/10/25 00:37:50;;;;;;;17.02;7.90;;;;;;;-1.66;79.46;100976.25;1705770;84;21158;-63
2021/10/25 00:40:16;;;;;;;25.85;10.13;;;;;;;-1.66;79.56;100982.16;1705667;84;20928;-62
2021/10/25 00:42:44;;;;;;;26.10;10.35;;;;;;;-1.68;79.59;100976.14;1705750;84;20965;-65
2021/10/25 00:45:11;;;;;;;23.95;9.60;;;;;;;-1.70;79.65;100976.34;1705657;82;21529;-64
2021/10/25 00:47:39;;;;;;;20.77;9.15;;;;;;;-1.72;79.70;100978.92;1671592;86;20961;-64
2021/10/25 00:50:07;;;;;;;24.72;8.28;;;;;;;-1.75;79.80;100975.31;1705768;84;21149;-64
2021/10/25 00:52:36;;;;;;;27.93;9.43;;;;;;;-1.77;79.98;100971.98;1705608;84;21461;-64
2021/10/25 00:55:06;;;;;;;25.97;9.65;;;;;;;-1.80;80.08;100964.31;1671578;84;21016;-65
2021/10/25 00:57:35;;;;;;;27.40;8.25;;;;;;;-1.80;80.26;100965.66;1705791;84;20933;-64
2021/10/25 01:00:05;;;;;;;22.62;8.25;;;;;;;-1.82;80.42;100961.82;1671493;84;21507;-64
2021/10/25 01:02:35;;;;;;;16.20;7.80;;;;;;;-1.83;80.32;100961.50;1705599;83;21160;-64
2021/10/25 01:05:03;;;;;;;23.52;9.25;;;;;;;-1.86;80.32;100959.73;1705682;84;20948;-64
2021/10/25 01:07:30;;;;;;;19.55;7.97;;;;;;;-1.85;80.80;100966.77;1705624;84;20984;-65
2021/10/25 01:09:56;;;;;;;22.00;8.25;;;;;;;-1.84;80.96;100969.78;1671943;85;20920;-64
2021/10/25 01:12:23;;;;;;;21.77;7.87;;;;;;;-1.86;81.09;100966.45;1705806;84;20992;-64
2021/10/25 01:14:50;;;;;;;21.27;7.53;;;;;;;-1.86;81.16;100971.84;1705729;82;21114;-64
2021/10/25 01:17:16;;;;;;;22.13;8.48;;;;;;;-1.88;81.24;100971.20;1705908;84;21409;-65
2021/10/25 01:19:43;;;;;;;22.42;7.75;;;;;;;-1.89;81.13;100973.06;1671510;86;20960;-65
2021/10/25 01:22:10;;;;;;;25.80;7.80;;;;;;;-1.89;81.14;100973.58;1705818;84;20980;-64
2021/10/25 01:24:37;;;;;;;24.77;9.75;;;;;;;-1.90;81.47;100965.20;1671460;85;20909;-65
2021/10/25 01:27:04;;;;;;;21.93;8.43;;;;;;;-1.87;81.90;100969.66;1705844;84;21113;-64
2021/10/25 01:29:31;;;;;;;18.00;8.40;;;;;;;-1.84;82.19;100969.78;1671576;84;21542;-64
2021/10/25 01:31:58;;;;;;;20.12;7.35;;;;;;;-1.82;82.58;100976.63;1705740;84;20937;-64
2021/10/25 01:34:24;;;;;;;28.50;8.23;;;;;;;-1.79;82.72;100972.70;1708654;83;21638;-64
2021/10/25 01:36:51;;;;;;;19.65;8.33;;;;;;;-1.78;82.66;100975.71;1726472;83;21027;-64
2021/10/25 01:39:18;;;;;;;17.55;8.23;;;;;;;-1.79;82.64;100974.05;1726406;83;21147;-64
2021/10/25 01:41:45;;;;;;;19.52;8.35;;;;;;;-1.80;82.60;100981.81;1726324;83;21661;-65
2021/10/25 01:44:12;;;;;;;21.70;8.35;;;;;;;-1.83;82.61;100979.52;1726344;83;21004;-64
2021/10/25 01:46:42;;;;;;;27.45;10.98;;;;;;;-1.85;83.31;100982.92;1726269;83;20937;-64
2021/10/25 01:49:10;;;;;;;26.87;10.08;;;;;;;-1.82;83.58;100989.25;1726445;83;20987;-65
2021/10/25 01:51:37;;;;;;;26.82;9.85;;;;;;;-1.80;83.45;100993.92;1726455;83;21943;-64
2021/10/25 01:54:04;;;;;;;22.35;9.78;;;;;;;-1.85;83.33;100992.34;1726398;83;20984;-64
2021/10/25 01:56:33;;;;;;;22.98;8.90;;;;;;;-1.88;83.49;100999.47;1726483;83;21468;-64
2021/10/25 01:59:00;;;;;;;24.40;9.38;;;;;;;-1.91;83.40;101002.56;1726442;83;21535;-63
2021/10/25 02:01:26;;;;;;;24.15;8.58;;;;;;;-1.92;83.25;101002.24;1726244;83;20889;-63
2021/10/25 02:03:53;;;;;;;20.62;8.93;;;;;;;-1.93;83.13;101000.58;1727791;83;21148;-63
2021/10/25 02:06:22;;;;;;;19.48;8.18;;;;;;;-1.95;83.25;101002.64;1726044;83;21506;-64
2021/10/25 02:08:48;;;;;;;23.83;8.00;;;;;;;-1.96;83.16;101011.74;1726239;83;20965;-63
2021/10/25 02:11:17;;;;;;;21.70;7.90;;;;;;;-2.00;83.12;101012.14;1726508;83;20865;-63
2021/10/25 02:13:46;;;;;;;19.45;7.85;;;;;;;-2.04;83.03;101011.38;1726225;81;21408;-64
2021/10/25 02:16:14;;;;;;;24.90;8.38;;;;;;;-2.07;82.99;101017.99;1726472;83;21507;-64
2021/10/25 02:18:41;;;;;;;18.65;7.80;;;;;;;-2.10;82.97;101021.08;1726554;83;21492;-64
2021/10/25 02:21:11;;;;;;;18.62;7.83;;;;;;;-2.14;82.78;101017.63;1725633;81;21574;-64
2021/10/25 02:23:38;;;;;;;17.73;7.55;;;;;;;-2.21;82.54;101017.58;1726559;83;21448;-64
2021/10/25 02:26:05;;;;;;;16.80;7.15;;;;;;;-2.27;82.53;101018.37;1726266;83;20869;-64
2021/10/25 02:28:33;;;;;;;16.90;8.33;;;;;;;-2.34;82.54;101021.55;1726304;83;21124;-65
2021/10/25 02:31:00;;;;;;;17.00;8.38;;;;;;;-2.39;82.57;101028.03;1726247;83;20896;-65
2021/10/25 02:33:28;;;;;;;15.10;7.72;;;;;;;-2.45;82.71;101024.26;1726319;83;21452;-63
2021/10/25 02:35:55;;;;;;;19.25;8.33;;;;;;;-2.50;82.75;101019.15;1725953;82;20965;-65
2021/10/25 02:38:22;;;;;;;28.80;7.83;;;;;;;-2.54;82.84;101028.62;1726280;82;21490;-65
2021/10/25 02:40:51;;;;;;;29.45;8.85;;;;;;;-2.51;84.56;101025.55;1726346;83;21180;-65
2021/10/25 02:43:18;;;;;;;28.95;8.05;;;;;;;-2.39;85.44;101024.00;1726261;83;20986;-64
2021/10/25 02:45:45;;;;;;;42.30;9.85;;;;;;;-2.36;85.30;101023.09;1726536;83;21427;-64
2021/10/25 02:48:12;;;;;;;31.27;8.60;;;;;;;-2.35;84.99;101029.30;1726472;83;20956;-64
2021/10/25 02:50:39;;;;;;;34.90;9.23;;;;;;;-2.37;85.05;101028.16;1726351;83;20940;-64
2021/10/25 02:53:09;;;;;;;28.50;9.08;;;;;;;-2.35;85.19;101031.99;1727719;83;21139;-64
2021/10/25 02:55:35;;;;;;;26.50;8.63;;;;;;;-2.34;85.18;101040.38;1726143;83;21456;-65
2021/10/25 02:58:03;;;;;;;23.77;9.50;;;;;;;-2.35;85.11;101042.23;1726360;83;21023;-64
2021/10/25 03:00:31;;;;;;;22.37;8.88;;;;;;;-2.38;84.87;101038.59;1726317;83;21535;-64
2021/10/25 03:02:59;;;;;;;23.80;7.75;;;;;;;-2.43;84.84;101038.34;1726715;83;20861;-65
2021/10/25 03:05:26;;;;;;;21.95;7.90;;;;;;;-2.44;85.24;101042.58;1726522;83;21803;-66
2021/10/25 03:07:53;;;;;;;19.27;7.47;;;;;;;-2.44;85.39;101042.06;1726440;83;21522;-64
2021/10/25 03:10:20;;;;;;;22.70;8.63;;;;;;;-2.44;85.41;101037.19;1726278;83;21035;-64
2021/10/25 03:12:48;;;;;;;21.02;7.15;;;;;;;-2.44;85.49;101038.54;1726275;83;20940;-64
2021/10/25 03:15:17;;;;;;;20.08;7.20;;;;;;;-2.44;85.60;101039.38;1726221;81;20904;-64
2021/10/25 03:17:45;;;;;;;21.37;7.35;;;;;;;-2.45;85.53;101042.25;1726025;83;21168;-64
2021/10/25 03:20:17;;;;;;;26.77;7.65;;;;;;;-2.50;85.23;101040.66;1726377;83;21467;-63
2021/10/25 03:22:47;;;;;;;26.68;8.88;;;;;;;-2.56;84.91;101044.13;1726263;83;20961;-64
2021/10/25 03:25:16;;;;;;;33.05;10.72;;;;;;;-2.63;84.92;101051.30;1726302;83;20944;-64
2021/10/25 03:27:45;;;;;;;43.00;11.73;;;;;;;-2.66;85.38;101049.83;1726244;83;20976;-64
2021/10/25 03:30:12;;;;;;;44.63;13.03;;;;;;;-2.72;85.14;101044.70;1725651;83;21071;-65
2021/10/25 03:32:41;;;;;;;49.50;14.25;;;;;;;-2.81;84.71;101037.80;1725376;81;21051;-64
2021/10/25 03:35:15;;;;;;;49.40;14.90;;;;;;;-2.86;84.86;101038.88;1687615;83;20992;-63
2021/10/25 03:37:42;;;;;;;52.10;14.90;;;;;;;-2.90;84.91;101040.83;1726233;83;20917;-63
2021/10/25 03:40:10;;;;;;;51.68;14.63;;;;;;;-2.93;84.87;101039.35;1726384;83;20901;-63
2021/10/25 03:42:44;;;;;;;56.60;15.90;;;;;;;-2.97;84.79;101043.45;1726455;83;21132;-64
2021/10/25 03:48:00;;;;;;;52.30;15.40;;;;;;;-3.02;84.88;101056.11;1726443;83;20900;-64
2021/10/25 03:50:26;;;;;;;51.10;14.03;;;;;;;-3.04;84.80;101063.53;1725473;83;20941;-63
2021/10/25 03:53:11;;;;;;;47.35;14.90;;;;;;;-3.07;84.78;101061.22;1707035;83;20932;-64
2021/10/25 03:56:32;;;;;;;42.15;13.80;;;;;;;-3.10;85.04;101065.62;1733084;80;21755;-63
2021/10/25 04:01:09;;;;;;;38.08;13.78;;;;;;;-3.14;85.17;101076.94;1753014;81;21075;-63
2021/10/25 04:25:49;;;;;;;55.52;14.65;;;;;;;-3.38;85.87;101072.21;1717564;83;21637;-64
2021/10/25 04:30:34;;;;;;;48.35;14.40;;;;;;;-3.49;85.76;101076.75;1698795;83;20963;-65
2021/10/25 04:33:02;;;;;;;89.52;22.22;;;;;;;-3.49;85.84;101077.25;1669254;86;21002;-66
2021/10/25 04:35:32;;;;;;;81.90;19.82;;;;;;;-3.53;85.92;101072.77;1662572;85;21096;-68
2021/10/25 04:38:19;;;;;;;76.92;20.08;;;;;;;-3.55;86.09;101072.62;1641293;86;20921;-66
2021/10/25 04:40:46;;;;;;;85.20;20.65;;;;;;;-3.56;86.20;101077.16;1705484;84;20901;-66
2021/10/25 04:43:15;;;;;;;61.20;16.90;;;;;;;-3.55;86.33;101072.13;1705357;84;22012;-72
2021/10/25 04:45:42;;;;;;;50.15;16.45;;;;;;;-3.51;86.74;101080.13;1704466;84;20953;-73
2021/10/25 04:48:09;;;;;;;64.25;20.20;;;;;;;-3.45;87.65;101083.38;1700748;83;21123;-68
2021/10/25 04:50:49;;;;;;;57.08;18.00;;;;;;;-3.41;87.75;101090.55;1704079;84;20913;-66
2021/10/25 04:53:20;;;;;;;56.67;18.60;;;;;;;-3.42;87.58;101088.37;1706109;82;21043;-68
2021/10/25 04:55:47;;;;;;;56.08;17.57;;;;;;;-3.45;87.22;101090.09;1703803;84;21025;-67
2021/10/25 04:58:13;;;;;;;46.02;17.85;;;;;;;-3.50;87.15;101096.56;1703930;84;20992;-68
2021/10/25 05:00:41;;;;;;;50.20;18.32;;;;;;;-3.48;88.12;101105.77;1676657;84;21208;-72
2021/10/25 05:03:07;;;;;;;45.98;17.35;;;;;;;-3.47;88.12;101106.09;1705599;84;21004;-75
2021/10/25 05:05:34;;;;;;;47.33;16.77;;;;;;;-3.49;88.01;101115.67;1705371;83;21548;-76
2021/10/25 05:08:03;;;;;;;41.73;15.05;;;;;;;-3.49;88.09;101118.36;1705407;84;20942;-77
2021/10/25 05:10:30;;;;;;;53.28;15.68;;;;;;;-3.50;88.06;101115.35;1705384;84;21442;-77
2021/10/25 05:12:57;;;;;;;75.40;16.05;;;;;;;-3.45;88.30;101107.54;1705353;84;21953;-76
2021/10/25 05:15:25;;;;;;;62.95;14.45;;;;;;;-3.37;88.47;101115.50;1705146;82;21435;-77
2021/10/25 05:17:53;;;;;;;40.33;12.13;;;;;;;-3.29;88.56;101106.52;1705555;84;20910;-76
2021/10/25 05:20:19;;;;;;;48.33;12.75;;;;;;;-3.21;88.62;101107.75;1705875;82;20961;-74
2021/10/25 05:22:48;;;;;;;35.85;12.13;;;;;;;-3.10;88.58;101109.95;1705837;82;20933;-73
2021/10/25 05:25:14;;;;;;;37.25;13.00;;;;;;;-3.03;88.46;101106.84;1700974;84;21512;-74
2021/10/25 05:27:42;;;;;;;32.67;13.03;;;;;;;-2.95;88.33;101113.95;1705699;84;20942;-73
2021/10/25 05:30:10;;;;;;;51.75;17.85;;;;;;;-2.87;88.33;101118.34;1705959;82;20977;-75
2021/10/25 05:32:38;;;;;;;59.70;20.88;;;;;;;-2.79;88.40;101121.75;1705542;84;20913;-74
2021/10/25 05:35:05;;;;;;;66.22;22.45;;;;;;;-2.70;88.48;101126.50;1705840;84;20941;-73
2021/10/25 05:37:32;;;;;;;66.10;20.48;;;;;;;-2.59;88.58;101126.52;1724989;83;21533;-74
2021/10/25 05:39:59;;;;;;;48.17;19.05;;;;;;;-2.47;88.94;101132.54;1726469;83;20897;-73
2021/10/25 05:42:28;;;;;;;54.20;19.30;;;;;;;-2.34;89.25;101137.21;1726065;83;20868;-74
2021/10/25 05:44:55;;;;;;;59.70;22.17;;;;;;;-2.19;89.93;101138.45;1726687;83;20936;-73
2021/10/25 05:47:22;;;;;;;40.33;16.65;;;;;;;-1.98;90.69;101141.64;1726390;83;21000;-74
2021/10/25 05:49:49;;;;;;;39.10;15.60;;;;;;;-1.85;90.33;101143.92;1726282;83;21143;-72
2021/10/25 05:52:16;;;;;;;36.35;14.15;;;;;;;-1.73;90.02;101145.53;1725986;81;20862;-73
2021/10/25 05:54:42;;;;;;;34.70;12.63;;;;;;;-1.65;89.81;101145.38;1725865;83;20960;-73
2021/10/25 05:57:12;;;;;;;36.25;11.05;;;;;;;-1.52;90.07;101152.72;1726007;83;21007;-73
2021/10/25 05:59:39;;;;;;;25.77;11.18;;;;;;;-1.40;89.83;101153.83;1725757;83;21511;-71
2021/10/25 06:04:41;;;;;;;28.40;9.20;;;;;;;-1.18;89.29;101166.70;1725019;83;20944;-73
2021/10/25 06:07:19;;;;;;;21.25;8.05;;;;;;;-1.03;89.42;101164.16;1708500;83;21451;-72
2021/10/25 06:09:47;;;;;;;26.33;10.58;;;;;;;-0.87;89.16;101171.59;1721659;82;21533;-73
2021/10/25 06:12:17;;;;;;;26.52;9.65;;;;;;;-0.77;88.43;101170.70;1725754;83;21000;-71
2021/10/25 06:14:46;;;;;;;22.82;8.73;;;;;;;-0.67;88.57;101171.98;1685589;84;21194;-70
2021/10/25 06:17:39;;;;;;;28.57;12.53;;;;;;;-0.55;88.00;101171.37;1688347;83;20915;-72
2021/10/25 06:19:54;;;;;;;40.08;13.38;;;;;;;-0.48;87.14;101171.70;1666995;86;21554;-73
2021/10/25 06:22:21;;;;;;;32.58;11.15;;;;;;;-0.36;86.87;101171.94;1668964;86;20983;-74
2021/10/25 06:24:48;;;;;;;24.12;9.73;;;;;;;0.05;88.00;101169.05;1667066;85;21019;-77
2021/10/25 06:27:15;;;;;;;23.75;10.13;;;;;;;0.63;85.93;101171.38;1688617;85;21493;-75
2021/10/25 06:29:42;;;;;;;25.40;10.88;;;;;;;0.93;83.15;101173.59;1668843;86;21035;-76
2021/10/25 06:32:09;;;;;;;31.93;12.18;;;;;;;1.02;82.48;101175.55;1669082;86;20883;-74
2021/10/25 06:34:41;;;;;;;35.17;11.88;;;;;;;1.29;82.36;101176.55;1668948;86;21069;-78
2021/10/25 06:37:34;;;;;;;25.82;11.00;;;;;;;1.89;81.25;101178.89;1654893;86;20951;-82
2021/10/25 06:39:58;;;;;;;29.25;12.25;;;;;;;2.65;77.52;101174.59;1641276;87;21175;-70
2021/10/25 06:42:26;;;;;;;28.17;13.00;;;;;;;3.24;76.22;101177.14;1705195;84;20945;-74
2021/10/25 06:44:59;;;;;;;;;;;;;;;3.83;74.39;101176.84;1695580;84;21025;-73
2021/10/25 06:47:28;;;;;;;28.17;11.40;;;;;;;4.33;72.49;101175.09;1703520;83;20768;-73
2021/10/25 06:49:54;;;;;;;24.27;10.78;;;;;;;4.77;68.56;101178.56;1704907;82;20915;-71
2021/10/25 06:52:21;;;;;;;25.15;11.60;;;;;;;5.06;66.22;101189.54;1671297;84;21137;-73
2021/10/25 06:54:47;;;;;;;27.55;11.83;;;;;;;5.23;64.00;101181.72;1705177;84;20885;-70
2021/10/25 06:57:14;;;;;;;24.35;10.95;;;;;;;5.30;63.70;101181.59;1704245;84;21499;-74
2021/10/25 06:59:42;;;;;;;25.77;10.60;;;;;;;5.53;63.66;101182.05;1704665;84;20958;-80
2021/10/25 07:02:12;;;;;;;27.15;10.95;;;;;;;5.81;63.22;101179.30;1704929;84;20989;-70
2021/10/25 07:04:39;;;;;;;17.32;9.38;;;;;;;6.08;61.45;101181.44;1704688;83;21132;-70
2021/10/25 07:07:06;;;;;;;22.35;8.50;;;;;;;6.25;60.35;101176.83;1704664;84;20890;-73
2021/10/25 07:09:33;;;;;;;15.50;8.30;;;;;;;6.39;60.58;101171.30;1670964;84;20992;-69
2021/10/25 07:12:00;;;;;;;18.60;9.45;;;;;;;6.57;58.16;101173.78;1704992;82;21445;-84
2021/10/25 07:14:33;;;;;;;22.50;9.48;;;;;;;6.66;58.45;101178.27;1705528;84;21005;-76
2021/10/25 07:20:07;;;;;;;19.48;9.68;;;;;;;7.24;57.88;101174.96;1705214;83;21544;-74
2021/10/25 07:59:25;;;;;;;23.38;9.85;;;;;;;8.45;54.81;101163.59;1705012;84;20968;-73
2021/10/25 07:59:58;;;;;;;14.15;6.35;;;;;;;10.84;45.55;101168.30;1697376;84;21561;-74
2021/10/25 08:10:28;;;;;;;16.12;6.60;;;;;;;11.20;43.87;101165.69;1650312;85;20933;-76
2021/10/25 08:13:01;;;;;;;7.30;4.95;;;;;;;11.28;43.74;101161.54;1644071;86;20913;-75
2021/10/25 08:15:38;;;;;;;8.80;4.53;;;;;;;11.42;43.33;101164.52;1676902;84;20948;-71
2021/10/25 08:18:05;;;;;;;10.25;4.20;;;;;;;11.65;42.20;101161.06;1643631;87;21571;-71
2021/10/25 08:20:31;;;;;;;9.78;4.65;;;;;;;11.73;41.18;101154.97;1677427;85;20984;-74
2021/10/25 08:22:58;;;;;;;8.28;3.08;;;;;;;11.81;41.77;101148.08;1644123;87;21531;-72
2021/10/25 08:25:30;;;;;;;8.48;3.77;;;;;;;11.92;40.40;101148.83;1677267;85;21058;-73
2021/10/25 08:28:01;;;;;;;7.97;3.42;;;;;;;12.01;40.91;101146.56;1642647;87;21404;-76
2021/10/25 08:30:28;;;;;;;7.72;3.40;;;;;;;12.10;40.43;101149.53;1677465;84;21401;-74
2021/10/25 08:35:39;;;;;;;6.40;3.08;;;;;;;12.10;38.81;101150.91;1677277;85;20964;-76
2021/10/25 08:40:55;;;;;;;8.78;2.92;;;;;;;12.39;38.41;101147.61;1724562;83;20908;-78
2021/10/25 08:43:24;;;;;;;11.65;3.15;;;;;;;12.64;38.62;101153.44;1726530;82;20914;-80
2021/10/25 08:45:56;;;;;;;10.08;3.72;;;;;;;12.84;37.08;101145.50;1707910;83;21591;-74
2021/10/25 08:48:24;;;;;;;9.35;4.10;;;;;;;12.93;36.81;101148.44;1699487;84;21049;-74
2021/10/25 08:50:58;;;;;;;5.95;3.52;;;;;;;12.93;37.75;101145.67;1640958;86;20988;-73
2021/10/25 08:53:26;;;;;;;8.78;3.72;;;;;;;12.98;37.51;101145.06;1629307;87;20965;-77
2021/10/25 08:55:58;;;;;;;10.55;4.10;;;;;;;13.09;37.11;101142.45;1643985;87;20982;-75
2021/10/25 08:58:27;;;;;;;8.80;3.93;;;;;;;13.28;36.82;101138.96;1662278;86;20965;-75
2021/10/25 09:00:59;;;;;;;9.70;3.52;;;;;;;13.15;36.72;101131.63;1675629;85;20907;-73
2021/10/25 09:03:39;;;;;;;7.40;3.42;;;;;;;12.98;35.72;101133.22;1672806;85;21872;-76
2021/10/25 09:06:16;;;;;;;7.53;3.05;;;;;;;12.89;36.61;101135.80;1675161;84;20938;-78
2021/10/25 09:08:43;;;;;;;7.03;2.77;;;;;;;12.99;35.89;101132.92;1654453;84;21010;-76
2021/10/25 09:11:10;;;;;;;6.37;2.92;;;;;;;13.11;35.69;101134.71;1675328;85;20950;-75
2021/10/25 09:13:45;;;;;;;6.75;2.92;;;;;;;13.45;35.26;101131.80;1672450;84;21497;-74
2021/10/25 09:16:21;;;;;;;3.75;2.25;;;;;;;13.62;35.54;101136.82;1675583;85;21170;-71
2021/10/25 09:19:09;;;;;;;8.28;2.87;;;;;;;13.82;34.01;101136.53;1675666;85;20942;-71
2021/10/25 09:21:40;;;;;;;;;;;;;;;13.66;34.82;101137.86;1677608;84;21458;-72
2021/10/25 09:24:27;;;;;;;5.08;2.92;;;;;;;13.66;34.72;101135.11;1677298;85;20108;-68
2021/10/25 09:27:00;;;;;;;7.33;3.33;;;;;;;13.89;34.65;101136.13;1675894;85;21017;-68
2021/10/25 09:29:32;;;;;;;5.75;3.12;;;;;;;14.03;34.28;101136.19;1675641;84;21466;-69
2021/10/25 09:32:08;;;;;;;5.87;3.12;;;;;;;13.99;32.82;101139.28;1675664;85;20872;-72
2021/10/25 09:34:49;;;;;;;8.38;3.05;;;;;;;13.84;33.29;101137.05;1654184;85;20943;-68
2021/10/25 09:37:45;;;;;;;5.53;2.62;;;;;;;13.96;32.97;101132.98;1675624;85;21216;-74
2021/10/25 09:40:33;;;;;;;5.95;2.55;;;;;;;13.91;32.16;101127.54;1675796;85;20899;-73
2021/10/25 09:43:19;;;;;;;4.90;2.50;;;;;;;13.77;34.15;101131.64;1654019;85;49773;-73
2021/10/25 09:46:05;;;;;;;8.35;2.87;;;;;;;14.07;33.50;101135.84;1675360;85;21022;-73
2021/10/25 09:51:24;;;;;;;4.47;2.12;;;;;;;14.03;32.53;101129.28;1657747;85;20983;-70
2021/10/25 09:53:59;;;;;;;5.92;2.83;;;;;;;14.03;32.99;101126.52;1654911;85;23475;-72
2021/10/25 09:56:43;;;;;;;5.07;2.43;;;;;;;14.19;32.30;101127.92;1676018;84;21183;-71
2021/10/25 09:59:50;;;;;;;5.22;2.35;;;;;;;14.44;33.05;101115.06;1653898;85;21481;-73
2021/10/25 10:02:00;;;;;;;6.30;2.40;;;;;;;14.59;31.96;101117.29;1664930;85;20935;-72
2021/10/25 10:04:28;;;;;;;6.72;2.83;;;;;;;14.60;31.01;101104.55;1673987;85;20915;-72
2021/10/25 10:06:59;;;;;;;5.33;2.60;;;;;;;14.76;31.17;101104.52;1672567;85;20899;-73
2021/10/25 10:09:26;;;;;;;4.85;2.72;;;;;;;15.03;30.69;101100.92;1651610;85;21193;-70
2021/10/25 10:11:55;;;;;;;4.62;2.62;;;;;;;15.26;30.14;101099.06;1674153;84;20994;-70
2021/10/25 10:14:24;;;;;;;7.45;2.98;;;;;;;15.28;29.83;101090.45;1652972;85;21058;-70
2021/10/25 10:16:52;;;;;;;9.85;3.47;;;;;;;15.17;29.55;101093.44;1674047;85;20939;-70
2021/10/25 10:19:24;;;;;;;9.30;4.28;;;;;;;15.02;29.88;101091.58;1674520;85;20903;-69
2021/10/25 10:22:02;;;;;;;7.12;3.70;;;;;;;14.76;29.91;101092.64;1670974;85;21161;-68
2021/10/25 10:24:36;;;;;;;6.53;3.67;;;;;;;14.45;30.28;101089.06;1673876;85;21033;-68
2021/10/25 10:27:09;;;;;;;9.83;4.22;;;;;;;14.45;30.73;101084.92;1674428;85;20931;-68
2021/10/25 11:32:28;;;;;;;5.40;2.70;;;;;;;15.35;26.69;101067.33;1645113;85;20970;-68
2021/10/25 11:34:55;;;;;;;7.65;2.77;;;;;;;15.16;26.29;101062.75;1634658;86;20972;-71
2021/10/25 11:37:23;;;;;;;5.15;2.40;;;;;;;15.19;26.46;101057.16;1619265;86;21534;-74
2021/10/25 11:39:58;;;;;;;4.67;2.65;;;;;;;15.12;26.34;101056.20;1636787;86;21139;-72
2021/10/25 11:42:25;;;;;;;4.67;2.70;;;;;;;15.10;26.40;101054.30;1636450;86;20918;-72
2021/10/25 11:44:56;;;;;;;7.50;3.22;;;;;;;15.39;26.68;101052.56;1576228;89;21585;-74
2021/10/25 11:47:29;;;;;;;6.87;2.62;;;;;;;15.57;26.19;101048.04;1637946;86;21038;-69
2021/10/25 11:50:06;;;;;;;8.78;2.92;;;;;;;15.60;25.99;101051.53;1643632;86;21144;-70
2021/10/25 11:52:48;;;;;;;6.67;2.95;;;;;;;15.52;26.18;101038.44;1639284;86;21187;-71
2021/10/25 11:55:17;;;;;;;4.75;2.83;;;;;;;15.66;26.32;101030.91;1640632;86;21444;-69
2021/10/25 11:57:51;;;;;;;6.33;2.70;;;;;;;15.95;26.20;101031.03;1649140;85;20988;-73
2021/10/25 12:00:21;;;;;;;6.30;2.58;;;;;;;16.38;25.10;101026.54;1638567;86;22186;-74
2021/10/25 12:02:49;;;;;;;8.38;3.12;;;;;;;16.56;25.75;101026.05;1645815;86;21536;-74
2021/10/25 12:05:25;;;;;;;6.92;3.12;;;;;;;16.69;24.74;101029.31;1575648;90;21078;-73
2021/10/25 12:07:55;;;;;;;12.13;3.35;;;;;;;16.38;24.54;101022.38;1640841;85;21056;-71
2021/10/25 12:10:24;;;;;;;6.33;2.80;;;;;;;16.27;24.57;101019.63;1652313;86;20952;-72
2021/10/25 12:12:55;;;;;;;7.70;2.72;;;;;;;16.39;24.31;101021.81;1642325;86;21129;-73
2021/10/25 12:15:24;;;;;;;5.65;3.02;;;;;;;16.38;24.45;101024.33;1637066;85;20990;-72
2021/10/25 12:17:50;;;;;;;5.50;3.27;;;;;;;16.41;24.88;101019.54;1648690;86;21552;-74
2021/10/25 12:20:24;;;;;;;6.20;2.85;;;;;;;16.42;24.14;101019.79;1649946;85;20870;-73
2021/10/25 12:23:02;;;;;;;8.00;3.50;;;;;;;16.43;24.61;101013.92;1583656;89;21134;-77
2021/10/25 12:25:30;;;;;;;7.17;3.12;;;;;;;16.34;24.19;101010.86;1633667;86;21699;-69
2021/10/25 12:28:10;;;;;;;7.25;2.85;;;;;;;16.14;24.21;101006.72;1653101;86;21046;-69
2021/10/25 12:30:38;;;;;;;6.92;2.95;;;;;;;16.30;24.66;101006.53;1651158;86;21167;-73
2021/10/25 12:33:04;;;;;;;6.50;3.15;;;;;;;16.58;24.51;101004.94;1650932;86;20882;-71
2021/10/25 12:35:43;;;;;;;6.42;3.30;;;;;;;16.58;24.22;101003.55;1657497;86;21588;-71
2021/10/25 12:38:17;;;;;;;4.78;2.50;;;;;;;16.66;23.71;101006.95;1680502;85;21029;-72
2021/10/25 12:40:54;;;;;;;7.67;2.70;;;;;;;16.87;22.98;101007.16;1641245;86;21033;-70
2021/10/25 12:43:21;;;;;;;4.87;2.40;;;;;;;16.92;22.45;101000.89;1636903;86;21116;-70
2021/10/25 12:46:03;;;;;;;5.33;2.35;;;;;;;16.68;22.85;101008.27;1659210;85;21148;-71
2021/10/25 12:48:43;;;;;;;5.08;2.30;;;;;;;16.67;22.40;101005.82;1652843;85;21073;-75
2021/10/25 12:51:09;;;;;;;4.60;2.72;;;;;;;16.56;22.04;101005.83;1657835;84;21034;-78
2021/10/25 12:53:38;;;;;;;8.03;3.08;;;;;;;16.46;21.83;101007.75;1669790;85;21539;-73
2021/10/25 12:56:05;;;;;;;10.53;3.25;;;;;;;16.43;22.88;100997.30;1658043;85;21103;-69
2021/10/25 12:58:31;;;;;;;9.15;3.17;;;;;;;16.61;23.07;100999.57;1663515;85;21080;-70
2021/10/25 13:01:09;;;;;;;7.72;4.20;;;;;;;16.55;22.64;100996.69;1661267;85;21005;-78
2021/10/25 13:03:36;;;;;;;8.40;3.40;;;;;;;16.38;22.84;100993.28;1666213;85;21050;-76
2021/10/25 13:06:08;;;;;;;6.53;3.05;;;;;;;16.50;23.02;100991.30;1664671;85;21448;-76
2021/10/25 13:08:35;;;;;;;7.22;3.95;;;;;;;16.56;22.92;100994.17;1663822;85;21139;-76
2021/10/25 13:11:03;;;;;;;9.93;3.22;;;;;;;16.54;22.98;100988.70;1665156;85;20985;-75
2021/10/25 13:13:35;;;;;;;6.70;3.17;;;;;;;16.42;22.86;100987.34;1665794;85;21020;-72
2021/10/25 13:16:01;;;;;;;6.22;3.02;;;;;;;16.19;23.37;100983.82;1659271;85;21021;-69
2021/10/25 13:18:27;;;;;;;5.95;3.12;;;;;;;16.27;23.51;100987.77;1666591;85;21076;-70
2021/10/25 13:20:54;;;;;;;5.37;2.98;;;;;;;16.33;23.32;100983.72;1657851;85;21182;-70
2021/10/25 13:23:24;;;;;;;7.35;3.70;;;;;;;16.27;23.64;100978.07;1663517;85;20997;-70
2021/10/25 13:25:51;;;;;;;10.85;3.80;;;;;;;16.16;23.54;100978.95;1663030;85;21016;-71
2021/10/25 13:28:18;;;;;;;7.42;3.22;;;;;;;15.87;23.88;100979.18;1654665;85;21069;-74
2021/10/25 13:30:49;;;;;;;9.95;3.50;;;;;;;15.66;23.88;100979.69;1663547;83;21564;-72
2021/10/25 13:33:16;;;;;;;11.48;4.08;;;;;;;15.38;24.44;100978.17;1665969;85;21856;-74
2021/10/25 13:35:43;;;;;;;8.70;4.20;;;;;;;15.45;24.71;100980.75;1649271;85;21040;-74
2021/10/25 13:38:09;;;;;;;6.85;3.52;;;;;;;15.66;25.07;100975.54;1665214;85;21053;-76
2021/10/25 13:40:37;;;;;;;7.30;3.40;;;;;;;15.76;24.77;100968.93;1657548;85;21089;-67
2021/10/25 13:43:03;;;;;;;8.23;3.25;;;;;;;15.55;24.47;100972.77;1662182;85;21020;-71
2021/10/25 13:45:31;;;;;;;6.75;3.33;;;;;;;14.80;25.36;100965.13;1667147;85;21199;-74
2021/10/25 13:47:57;;;;;;;8.85;3.27;;;;;;;14.04;26.08;100966.64;1652440;85;21017;-74
2021/10/25 13:50:25;;;;;;;7.22;3.47;;;;;;;13.47;27.01;100963.23;1669641;85;20957;-73
2021/10/25 13:52:53;;;;;;;29.57;7.75;;;;;;;12.95;27.39;100979.45;1659675;85;21053;-74
2021/10/25 13:55:22;;;;;;;12.15;4.50;;;;;;;12.45;28.38;100967.98;1679375;85;21013;-77
2021/10/25 13:57:50;;;;;;;6.42;3.05;;;;;;;12.09;29.28;100968.97;1667582;84;21561;-78
2021/10/25 14:00:17;;;;;;;7.87;3.20;;;;;;;11.73;29.54;100967.89;1674157;85;20870;-76